Latest Weather Observations for Rowley Shoals

IDW60801

Issued at 11:32 pm WST Friday 29 April 2016 (issued every 30 minutes, with the page automatically refreshed every 10 minutes)

About weather observations | Map of weather stations | Latest weather observations for WA | Other Formats
Station Details ID: 200713 Name: ROWLEY SHOALS Lat: -17.52 Lon: 118.95 Height: 0.0 m
Data from the previous 72 hours. | See also: Recent months at Rowley Shoals
Date/Time
WST
Temp
°C
App
Temp
°C
Dew
Point
Rel
Hum
%
Delta-T
°C
Wind Press
QNH
hPa
Press
MSL
hPa
Rain
since 9 am
mm
Dir
 
Spd
km/h
Gust
km/h
Spd
kts
Gust
kts
29/11:30pm 28.0 - - - - WSW 4 9 2 5 1011.8 1011.8 -
29/11:00pm 28.1 - - - - CALM 0 0 0 0 1012.1 1011.9 -
29/10:30pm 28.2 - - - - SSW 2 7 1 4 1012.0 1012.0 -
29/10:00pm 28.3 - - - - WSW 6 9 3 5 1012.3 1012.1 -
29/09:30pm 28.5 - - - - SW 11 13 6 7 1012.4 1012.4 -
29/09:00pm 28.6 - - - - SW 11 15 6 8 1012.3 1012.2 -
29/08:30pm 28.7 - - - - WSW 11 15 6 8 1012.3 1012.3 -
29/08:00pm 28.7 - - - - WSW 9 13 5 7 1012.0 1012.0 -
29/07:30pm 28.8 - - - - WSW 9 15 5 8 1011.8 1011.8 -
29/07:00pm 28.9 - - - - WSW 9 11 5 6 1011.5 1011.4 -
29/06:30pm 28.9 - - - - WSW 11 13 6 7 1011.3 1011.3 -
29/06:00pm 29.1 - - - - WSW 11 15 6 8 1011.1 1011.1 -
29/05:30pm 29.2 - - - - WSW 11 15 6 8 1011.0 1011.0 -
29/05:00pm 29.3 - - - - WSW 11 13 6 7 1010.8 1010.9 -
29/04:30pm 29.3 - - - - WSW 13 17 7 9 1010.7 1010.7 -
29/04:00pm 29.5 - - - - WSW 11 15 6 8 1010.5 1010.4 -
29/03:30pm 29.2 - - - - WSW 15 17 8 9 1010.3 1010.3 -
29/03:00pm 29.3 - - - - W 15 20 8 11 1010.1 1010.0 -
29/02:30pm 29.3 - - - - WNW 13 19 7 10 1009.9 1009.9 -
29/02:00pm 29.2 - - - - WNW 17 20 9 11 1010.0 1009.8 -
29/01:30pm 29.1 - - - - WNW 17 20 9 11 1010.2 1010.2 -
29/01:00pm 29.3 - - - - WNW 17 20 9 11 1010.4 1010.2 -
29/12:30pm 29.0 - - - - WNW 17 20 9 11 1010.8 1010.8 -
29/12:00pm 28.9 - - - - WNW 19 20 10 11 1010.9 1010.7 -
29/11:30am 28.8 - - - - WNW 17 22 9 12 1011.2 1011.2 -
29/11:00am 28.8 - - - - WNW 17 19 9 10 1011.7 1011.5 -
29/10:30am 29.0 - - - - W 17 20 9 11 1012.0 1012.0 -
29/10:00am 28.9 - - - - WNW 17 19 9 10 1012.1 1012.0 -
29/09:30am 28.8 - - - - WNW 17 22 9 12 1012.5 1012.5 -
29/09:00am 28.8 - - - - WNW 15 19 8 10 1012.1 1012.1 -
29/08:30am 28.7 - - - - WNW 17 20 9 11 1012.1 1012.1 -
29/08:00am 28.7 - - - - WNW 17 20 9 11 1011.9 1011.9 -
29/07:30am 28.7 - - - - WNW 17 19 9 10 1011.6 1011.6 -
29/07:00am 28.6 - - - - WNW 17 20 9 11 1011.4 1011.4 -
29/06:30am 28.7 - - - - WNW 15 19 8 10 1011.2 1011.2 -
29/06:00am 28.7 - - - - NW 15 19 8 10 1011.0 1010.9 -
29/05:30am 28.7 - - - - NW 15 19 8 10 1010.6 1010.6 -
29/05:00am 28.7 - - - - WNW 17 20 9 11 1010.5 1010.4 -
29/04:30am 28.7 - - - - NW 15 17 8 9 1010.5 1010.5 -
29/04:00am 28.7 - - - - WNW 15 17 8 9 1010.4 1010.4 -
29/03:30am 28.7 - - - - NW 15 17 8 9 1010.3 1010.3 -
29/03:00am 28.7 - - - - NW 13 17 7 9 1010.4 1010.3 -
29/02:30am 28.7 - - - - NW 13 15 7 8 1010.5 1010.5 -
29/02:00am 28.7 - - - - NW 13 13 7 7 1010.6 1010.4 -
29/01:30am 28.7 - - - - NW 11 13 6 7 1010.7 1010.7 -
29/01:00am 28.7 - - - - NW 9 13 5 7 1010.8 1010.7 -
29/12:30am 28.7 - - - - NW 6 7 3 4 1011.0 1011.0 -
29/12:00am 28.7 - - - - NW 7 9 4 5 1011.2 1011.0 -
 
Date/Time
WST
Temp
°C
App
Temp
°C
Dew
Point
Rel
Hum
%
Delta-T
°C
Wind Press
QNH
hPa
Press
MSL
hPa
Rain
since 9 am
mm
Dir
 
Spd
km/h
Gust
km/h
Spd
kts
Gust
kts
28/11:30pm 28.8 - - - - NW 9 11 5 6 1011.4 1011.4 -
28/11:00pm 28.8 - - - - NW 7 9 4 5 1011.5 1011.4 -
28/10:30pm 28.7 - - - - WNW 4 6 2 3 1011.7 1011.7 -
28/10:00pm 28.9 - - - - W 6 9 3 5 1011.8 1011.6 -
28/09:30pm 29.0 - - - - WSW 4 6 2 3 1011.8 1011.8 -
28/09:00pm 29.1 - - - - SW 7 9 4 5 1011.9 1011.8 -
28/08:30pm 29.3 - - - - SW 9 11 5 6 1011.7 1011.7 -
28/08:00pm 29.4 - - - - SW 9 11 5 6 1011.4 1011.4 -
28/07:30pm 29.6 - - - - SW 11 15 6 8 1011.2 1011.2 -
28/07:00pm 29.6 - - - - SW 13 15 7 8 1010.9 1010.9 -
28/06:30pm 29.7 - - - - SW 11 13 6 7 1010.6 1010.6 -
28/06:00pm 29.8 - - - - WSW 13 15 7 8 1010.3 1010.3 -
28/05:30pm 29.9 - - - - WSW 11 13 6 7 1010.0 1010.0 -
28/05:00pm 30.0 - - - - WSW 11 13 6 7 1009.7 1009.6 -
28/04:30pm 30.1 - - - - WSW 11 13 6 7 1009.5 1009.5 -
28/04:00pm 30.1 - - - - WSW 9 13 5 7 1009.4 1009.4 -
28/03:30pm 29.9 - - - - WSW 13 15 7 8 1009.3 1009.3 -
28/03:00pm 29.9 - - - - WSW 15 17 8 9 1009.2 1009.2 -
28/02:30pm 29.3 - - - - SW 17 19 9 10 1009.1 1009.1 -
28/02:00pm 29.1 - - - - SW 17 20 9 11 1009.3 1009.2 -
28/01:30pm 29.1 - - - - SW 19 22 10 12 1009.6 1009.6 -
28/01:00pm 29.0 - - - - SW 20 24 11 13 1009.9 1009.7 -
28/12:30pm 29.1 - - - - SW 20 22 11 12 1010.1 1010.1 -
28/12:00pm 29.0 - - - - SW 20 24 11 13 1010.4 1010.2 -
28/11:30am 29.0 - - - - SW 19 22 10 12 1010.8 1010.8 -
28/11:00am 29.0 - - - - WSW 19 22 10 12 1011.2 1011.0 -
28/10:30am 29.0 - - - - WSW 19 24 10 13 1011.7 1011.7 -
28/10:00am 29.0 - - - - WSW 20 24 11 13 1012.0 1011.9 -
28/09:30am 28.9 - - - - WSW 19 20 10 11 1012.0 1012.0 -
28/09:00am 29.0 - - - - WSW 19 22 10 12 1011.9 1011.9 -
28/08:30am 28.8 - - - - WSW 20 22 11 12 1011.7 1011.7 -
28/08:00am 28.7 - - - - W 20 26 11 14 1011.3 1011.3 -
28/07:30am 28.6 - - - - W 20 24 11 13 1011.2 1011.2 -
28/07:00am 28.6 - - - - W 20 26 11 14 1010.9 1010.9 -
28/06:30am 28.7 - - - - W 20 22 11 12 1010.4 1010.4 -
28/06:00am 28.5 - - - - W 19 24 10 13 1010.3 1010.2 -
28/05:30am 28.5 - - - - W 20 24 11 13 1010.0 1010.0 -
28/05:00am 28.5 - - - - W 20 24 11 13 1009.9 1009.8 -
28/04:30am 28.5 - - - - W 20 24 11 13 1009.7 1009.7 -
28/04:00am 28.4 - - - - W 20 24 11 13 1009.6 1009.5 -
28/03:30am 28.6 - - - - WNW 17 20 9 11 1009.6 1009.6 -
28/03:00am 28.4 - - - - WNW 15 17 8 9 1009.8 1009.6 -
28/02:30am 28.6 - - - - WNW 13 17 7 9 1009.7 1009.7 -
28/02:00am 28.7 - - - - NW 13 17 7 9 1009.8 1009.8 -
28/01:30am 28.7 - - - - WNW 11 13 6 7 1010.1 1010.1 -
28/01:00am 28.6 - - - - WNW 11 13 6 7 1010.1 1009.9 -
28/12:30am 28.8 - - - - WNW 11 13 6 7 1010.5 1010.5 -
28/12:00am 28.7 - - - - W 13 15 7 8 1010.6 1010.5 -
 
Date/Time
WST
Temp
°C
App
Temp
°C
Dew
Point
Rel
Hum
%
Delta-T
°C
Wind Press
QNH
hPa
Press
MSL
hPa
Rain
since 9 am
mm
Dir
 
Spd
km/h
Gust
km/h
Spd
kts
Gust
kts
27/11:30pm 28.6 - - - - NW 6 9 3 5 1010.8 1010.8 -
27/11:00pm 28.6 - - - - N 6 7 3 4 1010.9 1010.8 -
27/10:30pm 28.4 - - - - N 6 9 3 5 1011.0 1011.0 -
27/10:00pm 28.3 - - - - CALM 0 0 0 0 1011.1 1010.9 -
27/09:30pm 28.3 - - - - CALM 0 0 0 0 1011.4 1011.4 -
27/09:00pm 28.3 - - - - CALM 0 0 0 0 1011.5 1011.4 -
27/08:30pm 28.5 - - - - CALM 0 0 0 0 1011.4 1011.4 -
27/08:00pm 28.6 - - - - CALM 0 6 0 3 1011.2 1011.2 -
27/07:30pm 28.7 - - - - CALM 0 6 0 3 1010.7 1010.7 -
27/07:00pm 28.9 - - - - SSW 9 13 5 7 1010.4 1010.4 -
27/06:30pm 29.2 - - - - SSW 13 15 7 8 1010.1 1010.1 -
27/06:00pm 29.2 - - - - SSW 13 17 7 9 1009.9 1009.8 -
27/05:30pm 29.3 - - - - SSW 13 15 7 8 1009.6 1009.6 -
27/05:00pm 29.3 - - - - SW 15 17 8 9 1009.4 1009.4 -
27/04:30pm 29.4 - - - - SW 15 17 8 9 1009.1 1009.1 -
27/04:00pm 29.6 - - - - SW 19 20 10 11 1009.2 1009.1 -
27/03:30pm 29.6 - - - - SW 17 20 9 11 1008.9 1008.9 -
27/03:00pm 29.5 - - - - WSW 15 15 8 8 1009.1 1009.0 -
27/02:30pm 29.3 - - - - WSW 15 17 8 9 1009.2 1009.2 -
27/02:00pm 29.3 - - - - WSW 13 15 7 8 1009.5 1009.4 -
27/01:30pm 29.3 - - - - WSW 17 19 9 10 1009.6 1009.6 -
27/01:00pm 29.2 - - - - WSW 17 19 9 10 1010.1 1009.9 -
27/12:30pm 29.1 - - - - W 17 20 9 11 1010.3 1010.3 -
27/12:00pm 29.2 - - - - W 17 20 9 11 1010.7 1010.5 -
27/11:30am 29.0 - - - - W 19 20 10 11 1011.0 1011.0 -
27/11:00am 29.0 - - - - W 19 22 10 12 1011.4 1011.2 -
27/10:30am 29.0 - - - - W 15 20 8 11 1011.8 1011.8 -
27/10:00am 29.1 - - - - W 15 19 8 10 1012.3 1012.1 -
27/09:30am 29.0 - - - - W 17 20 9 11 1012.5 1012.5 -
27/09:00am 29.0 - - - - W 17 20 9 11 1012.4 1012.3 -
27/08:30am 28.9 - - - - W 15 17 8 9 1012.3 1012.3 -
27/08:00am 28.9 - - - - WNW 15 19 8 10 1012.2 1012.2 -
27/07:30am 28.9 - - - - WNW 15 17 8 9 1012.0 1012.0 -
27/07:00am 28.7 - - - - WNW 15 17 8 9 1011.6 1011.6 -
27/06:30am 28.6 - - - - NW 15 17 8 9 1011.4 1011.4 -
27/06:00am 28.8 - - - - NW 17 20 9 11 1011.2 1011.1 -
27/05:30am 28.8 - - - - NW 19 20 10 11 1010.8 1010.8 -
27/05:00am 28.8 - - - - NW 17 20 9 11 1010.7 1010.6 -
27/04:30am 28.8 - - - - NW 17 20 9 11 1010.8 1010.8 -
27/04:00am 28.8 - - - - NW 17 20 9 11 1010.7 1010.6 -
27/03:30am 28.8 - - - - NW 19 20 10 11 1010.6 1010.6 -
27/03:00am 28.7 - - - - NNW 17 20 9 11 1010.5 1010.4 -
27/02:30am 28.9 - - - - NW 15 17 8 9 1010.6 1010.6 -
27/02:00am 28.9 - - - - NW 13 17 7 9 1010.8 1010.6 -
27/01:30am 28.9 - - - - NW 13 13 7 7 1011.1 1011.1 -
27/01:00am 29.0 - - - - NW 11 13 6 7 1011.3 1011.2 -
27/12:30am 29.1 - - - - NNW 9 13 5 7 1011.6 1011.6 -
27/12:00am 29.2 - - - - NNW 9 11 5 6 1011.9 1011.7 -

Other Formats:

Comma delimited format used in spreadsheet applications
http://www.bom.gov.au/fwo/IDW60801/IDW60801.94207.axf

JavaScript Object Notation format (JSON) in row-major order
http://www.bom.gov.au/fwo/IDW60801/IDW60801.94207.json